sensor_id;sensor_type;location;lat;lon;timestamp;pressure;altitude;pressure_sealevel;temperature;humidity
62150;BME280;48134;53.586;10.610;2024-02-28T00:01:50;101362.69;;;1.38;100.00
62150;BME280;48134;53.586;10.610;2024-02-28T00:04:24;101360.63;;;1.46;100.00
62150;BME280;48134;53.586;10.610;2024-02-28T00:06:52;101361.66;;;1.39;100.00
62150;BME280;48134;53.586;10.610;2024-02-28T00:09:25;101359.56;;;1.34;100.00
62150;BME280;48134;53.586;10.610;2024-02-28T00:11:58;101358.84;;;1.60;100.00
62150;BME280;48134;53.586;10.610;2024-02-28T00:14:32;101354.50;;;1.59;100.00
62150;BME280;48134;53.586;10.610;2024-02-28T00:17:06;101356.09;;;1.47;100.00
62150;BME280;48134;53.586;10.610;2024-02-28T00:19:39;101355.94;;;1.55;100.00
62150;BME280;48134;53.586;10.610;2024-02-28T00:22:14;101354.44;;;1.46;100.00
62150;BME280;48134;53.586;10.610;2024-02-28T00:24:47;101350.97;;;1.52;100.00
62150;BME280;48134;53.586;10.610;2024-02-28T00:27:15;101353.84;;;1.57;100.00
62150;BME280;48134;53.586;10.610;2024-02-28T00:29:49;101350.75;;;1.47;100.00
62150;BME280;48134;53.586;10.610;2024-02-28T00:32:23;101347.91;;;1.62;100.00
62150;BME280;48134;53.586;10.610;2024-02-28T00:34:57;101355.50;;;1.51;100.00
62150;BME280;48134;53.586;10.610;2024-02-28T00:37:30;101354.25;;;1.47;100.00
62150;BME280;48134;53.586;10.610;2024-02-28T00:40:04;101345.78;;;1.44;100.00
62150;BME280;48134;53.586;10.610;2024-02-28T00:42:37;101347.03;;;1.48;100.00
62150;BME280;48134;53.586;10.610;2024-02-28T00:45:07;101339.38;;;1.45;100.00
62150;BME280;48134;53.586;10.610;2024-02-28T00:47:42;101340.25;;;1.52;100.00
62150;BME280;48134;53.586;10.610;2024-02-28T00:50:11;101352.00;;;1.58;100.00
62150;BME280;48134;53.586;10.610;2024-02-28T00:52:44;101352.81;;;1.51;100.00
62150;BME280;48134;53.586;10.610;2024-02-28T00:55:12;101354.25;;;1.54;100.00
62150;BME280;48134;53.586;10.610;2024-02-28T00:57:46;101347.03;;;1.55;100.00
62150;BME280;48134;53.586;10.610;2024-02-28T01:00:19;101346.22;;;1.54;100.00
62150;BME280;48134;53.586;10.610;2024-02-28T01:02:54;101336.94;;;1.57;100.00
62150;BME280;48134;53.586;10.610;2024-02-28T01:05:27;101339.00;;;1.48;100.00
62150;BME280;48134;53.586;10.610;2024-02-28T01:08:01;101338.13;;;1.41;100.00
62150;BME280;48134;53.586;10.610;2024-02-28T01:10:34;101332.97;;;1.39;100.00
62150;BME280;48134;53.586;10.610;2024-02-28T01:13:03;101332.19;;;1.45;100.00
62150;BME280;48134;53.586;10.610;2024-02-28T01:15:31;101327.44;;;1.54;100.00
62150;BME280;48134;53.586;10.610;2024-02-28T01:18:06;101326.59;;;1.47;100.00
62150;BME280;48134;53.586;10.610;2024-02-28T01:20:39;101329.88;;;1.42;100.00
62150;BME280;48134;53.586;10.610;2024-02-28T01:23:12;101323.91;;;1.47;100.00
62150;BME280;48134;53.586;10.610;2024-02-28T01:25:46;101320.22;;;1.48;100.00
62150;BME280;48134;53.586;10.610;2024-02-28T01:28:14;101330.09;;;1.47;100.00
62150;BME280;48134;53.586;10.610;2024-02-28T01:30:48;101320.41;;;1.40;100.00
62150;BME280;48134;53.586;10.610;2024-02-28T01:33:17;101324.50;;;1.42;100.00
62150;BME280;48134;53.586;10.610;2024-02-28T01:35:50;101317.91;;;1.38;100.00
62150;BME280;48134;53.586;10.610;2024-02-28T01:38:24;101325.16;;;1.44;100.00
62150;BME280;48134;53.586;10.610;2024-02-28T01:40:58;101325.13;;;1.38;100.00
62150;BME280;48134;53.586;10.610;2024-02-28T01:43:26;101320.59;;;1.31;100.00
62150;BME280;48134;53.586;10.610;2024-02-28T01:46:01;101317.72;;;1.33;100.00
62150;BME280;48134;53.586;10.610;2024-02-28T01:48:37;101300.56;;;1.41;100.00
62150;BME280;48134;53.586;10.610;2024-02-28T01:51:11;101303.47;;;1.39;100.00
62150;BME280;48134;53.586;10.610;2024-02-28T01:53:40;101311.94;;;1.43;100.00
62150;BME280;48134;53.586;10.610;2024-02-28T01:56:14;101311.72;;;1.38;100.00
62150;BME280;48134;53.586;10.610;2024-02-28T01:58:49;101302.00;;;1.36;100.00
62150;BME280;48134;53.586;10.610;2024-02-28T02:01:17;101302.22;;;1.35;100.00
62150;BME280;48134;53.586;10.610;2024-02-28T02:03:53;101308.81;;;1.32;100.00
62150;BME280;48134;53.586;10.610;2024-02-28T02:06:26;101301.19;;;1.36;100.00
62150;BME280;48134;53.586;10.610;2024-02-28T02:09:01;101300.78;;;1.39;100.00
62150;BME280;48134;53.586;10.610;2024-02-28T02:11:34;101297.50;;;1.37;100.00
62150;BME280;48134;53.586;10.610;2024-02-28T02:14:08;101308.22;;;1.37;100.00
62150;BME280;48134;53.586;10.610;2024-02-28T02:16:36;101303.47;;;1.39;100.00
62150;BME280;48134;53.586;10.610;2024-02-28T02:19:11;101303.66;;;1.31;100.00
62150;BME280;48134;53.586;10.610;2024-02-28T02:21:43;101309.22;;;1.29;100.00
62150;BME280;48134;53.586;10.610;2024-02-28T02:24:23;101309.25;;;1.36;100.00
62150;BME280;48134;53.586;10.610;2024-02-28T02:26:58;101300.56;;;1.41;100.00
62150;BME280;48134;53.586;10.610;2024-02-28T02:29:26;101291.50;;;1.35;100.00
62150;BME280;48134;53.586;10.610;2024-02-28T02:32:00;101291.09;;;1.31;100.00
62150;BME280;48134;53.586;10.610;2024-02-28T02:34:34;101292.94;;;1.31;100.00
62150;BME280;48134;53.586;10.610;2024-02-28T02:37:07;101293.75;;;1.38;100.00
62150;BME280;48134;53.586;10.610;2024-02-28T02:39:42;101297.69;;;1.29;100.00
62150;BME280;48134;53.586;10.610;2024-02-28T02:42:15;101293.56;;;1.33;100.00
62150;BME280;48134;53.586;10.610;2024-02-28T02:44:44;101293.56;;;1.46;100.00
62150;BME280;48134;53.586;10.610;2024-02-28T02:47:17;101290.06;;;1.39;100.00
62150;BME280;48134;53.586;10.610;2024-02-28T02:49:51;101301.41;;;1.34;100.00
62150;BME280;48134;53.586;10.610;2024-02-28T02:52:24;101300.00;;;1.52;100.00
62150;BME280;48134;53.586;10.610;2024-02-28T02:54:59;101323.47;;;1.36;100.00
62150;BME280;48134;53.586;10.610;2024-02-28T02:57:33;101328.63;;;1.38;100.00
62150;BME280;48134;53.586;10.610;2024-02-28T03:00:01;101327.19;;;1.42;100.00
62150;BME280;48134;53.586;10.610;2024-02-28T03:02:35;101331.31;;;1.45;100.00
62150;BME280;48134;53.586;10.610;2024-02-28T03:05:05;101316.03;;;1.25;100.00
62150;BME280;48134;53.586;10.610;2024-02-28T03:07:39;101324.66;;;1.14;100.00
62150;BME280;48134;53.586;10.610;2024-02-28T03:10:13;101332.09;;;1.25;100.00
62150;BME280;48134;53.586;10.610;2024-02-28T03:12:47;101332.28;;;1.17;100.00
62150;BME280;48134;53.586;10.610;2024-02-28T03:15:15;101324.88;;;1.19;100.00
62150;BME280;48134;53.586;10.610;2024-02-28T03:17:48;101344.69;;;1.25;100.00
62150;BME280;48134;53.586;10.610;2024-02-28T03:20:21;101341.78;;;1.19;100.00
62150;BME280;48134;53.586;10.610;2024-02-28T03:22:55;101348.22;;;1.32;100.00
62150;BME280;48134;53.586;10.610;2024-02-28T03:25:25;101351.25;;;1.15;100.00
62150;BME280;48134;53.586;10.610;2024-02-28T03:28:00;101349.38;;;1.02;100.00
62150;BME280;48134;53.586;10.610;2024-02-28T03:30:34;101360.28;;;1.01;100.00
62150;BME280;48134;53.586;10.610;2024-02-28T03:33:07;101360.28;;;1.01;100.00
62150;BME280;48134;53.586;10.610;2024-02-28T03:35:36;101351.44;;;1.07;100.00
62150;BME280;48134;53.586;10.610;2024-02-28T03:38:04;101363.22;;;1.13;100.00
62150;BME280;48134;53.586;10.610;2024-02-28T03:40:34;101363.38;;;1.05;100.00
62150;BME280;48134;53.586;10.610;2024-02-28T03:43:07;101361.09;;;1.01;100.00
62150;BME280;48134;53.586;10.610;2024-02-28T03:45:36;101362.72;;;0.96;100.00
62150;BME280;48134;53.586;10.610;2024-02-28T03:48:10;101358.22;;;1.03;100.00
62150;BME280;48134;53.586;10.610;2024-02-28T03:50:38;101355.75;;;1.01;100.00
62150;BME280;48134;53.586;10.610;2024-02-28T03:53:11;101362.34;;;1.06;100.00
62150;BME280;48134;53.586;10.610;2024-02-28T03:55:46;101370.13;;;0.94;100.00
62150;BME280;48134;53.586;10.610;2024-02-28T03:58:14;101368.28;;;0.94;100.00
62150;BME280;48134;53.586;10.610;2024-02-28T04:00:47;101369.91;;;0.89;100.00
62150;BME280;48134;53.586;10.610;2024-02-28T04:03:15;101364.75;;;0.94;100.00
62150;BME280;48134;53.586;10.610;2024-02-28T04:05:43;101358.56;;;0.87;100.00
62150;BME280;48134;53.586;10.610;2024-02-28T04:08:17;101362.28;;;0.92;100.00
62150;BME280;48134;53.586;10.610;2024-02-28T04:10:46;101361.03;;;0.88;100.00
62150;BME280;48134;53.586;10.610;2024-02-28T04:13:16;101360.00;;;0.89;100.00
62150;BME280;48134;53.586;10.610;2024-02-28T04:15:49;101349.94;;;0.91;100.00
62150;BME280;48134;53.586;10.610;2024-02-28T04:18:22;101362.09;;;0.94;100.00
62150;BME280;48134;53.586;10.610;2024-02-28T04:20:50;101355.25;;;0.84;100.00
62150;BME280;48134;53.586;10.610;2024-02-28T04:23:24;101355.25;;;0.84;100.00
62150;BME280;48134;53.586;10.610;2024-02-28T04:25:58;101355.63;;;0.81;100.00
62150;BME280;48134;53.586;10.610;2024-02-28T04:28:31;101358.50;;;0.80;100.00
62150;BME280;48134;53.586;10.610;2024-02-28T04:31:05;101361.22;;;0.87;100.00
62150;BME280;48134;53.586;10.610;2024-02-28T04:33:33;101351.53;;;0.85;100.00
62150;BME280;48134;53.586;10.610;2024-02-28T04:36:07;101358.78;;;0.92;100.00
62150;BME280;48134;53.586;10.610;2024-02-28T04:38:40;101348.03;;;0.85;100.00
62150;BME280;48134;53.586;10.610;2024-02-28T04:41:14;101354.38;;;0.77;100.00
62150;BME280;48134;53.586;10.610;2024-02-28T04:43:43;101358.75;;;0.85;100.00
62150;BME280;48134;53.586;10.610;2024-02-28T04:46:11;101357.75;;;0.86;100.00
62150;BME280;48134;53.586;10.610;2024-02-28T04:48:44;101347.41;;;0.83;100.00
62150;BME280;48134;53.586;10.610;2024-02-28T04:51:17;101349.94;;;0.91;100.00
62150;BME280;48134;53.586;10.610;2024-02-28T04:53:50;101351.38;;;0.94;100.00
62150;BME280;48134;53.586;10.610;2024-02-28T04:56:25;101353.41;;;0.85;100.00
62150;BME280;48134;53.586;10.610;2024-02-28T04:58:58;101350.16;;;0.96;100.00
62150;BME280;48134;53.586;10.610;2024-02-28T05:01:26;101350.75;;;0.92;100.00
62150;BME280;48134;53.586;10.610;2024-02-28T05:04:00;101355.25;;;0.84;100.00
62150;BME280;48134;53.586;10.610;2024-02-28T05:06:34;101351.97;;;0.89;100.00
62150;BME280;48134;53.586;10.610;2024-02-28T05:09:07;101362.50;;;0.91;100.00
62150;BME280;48134;53.586;10.610;2024-02-28T05:11:37;101364.19;;;0.98;100.00
62150;BME280;48134;53.586;10.610;2024-02-28T05:14:10;101363.75;;;0.95;100.00
62150;BME280;48134;53.586;10.610;2024-02-28T05:16:38;101363.34;;;0.98;100.00
62150;BME280;48134;53.586;10.610;2024-02-28T05:19:11;101363.75;;;0.95;100.00
62150;BME280;48134;53.586;10.610;2024-02-28T05:21:45;101362.72;;;0.96;100.00
62150;BME280;48134;53.586;10.610;2024-02-28T05:24:20;101368.50;;;0.93;100.00
62150;BME280;48134;53.586;10.610;2024-02-28T05:26:54;101368.50;;;0.93;100.00
62150;BME280;48134;53.586;10.610;2024-02-28T05:29:27;101368.69;;;0.91;100.00
62150;BME280;48134;53.586;10.610;2024-02-28T05:31:56;101366.03;;;0.91;100.00
62150;BME280;48134;53.586;10.610;2024-02-28T05:34:29;101364.56;;;0.89;100.00
62150;BME280;48134;53.586;10.610;2024-02-28T05:37:02;101359.56;;;0.85;100.00
62150;BME280;48134;53.586;10.610;2024-02-28T05:39:35;101367.75;;;0.71;100.00
62150;BME280;48134;53.586;10.610;2024-02-28T05:42:10;101368.56;;;0.71;100.00
62150;BME280;48134;53.586;10.610;2024-02-28T05:44:43;101370.44;;;0.71;100.00
62150;BME280;48134;53.586;10.610;2024-02-28T05:47:16;101375.16;;;0.68;100.00
62150;BME280;48134;53.586;10.610;2024-02-28T05:49:49;101380.66;;;0.60;100.00
62150;BME280;48134;53.586;10.610;2024-02-28T05:52:22;101377.00;;;0.68;100.00
62150;BME280;48134;53.586;10.610;2024-02-28T05:54:57;101382.31;;;0.61;100.00
62150;BME280;48134;53.586;10.610;2024-02-28T05:57:31;101382.31;;;0.61;100.00
62150;BME280;48134;53.586;10.610;2024-02-28T06:00:06;101374.03;;;0.56;100.00
62150;BME280;48134;53.586;10.610;2024-02-28T06:02:41;101378.63;;;0.62;100.00
62150;BME280;48134;53.586;10.610;2024-02-28T06:05:09;101386.25;;;0.65;100.00
62150;BME280;48134;53.586;10.610;2024-02-28T06:07:43;101391.38;;;0.60;100.00
62150;BME280;48134;53.586;10.610;2024-02-28T06:10:16;101389.69;;;0.53;100.00
62150;BME280;48134;53.586;10.610;2024-02-28T06:12:51;101386.56;;;0.49;100.00
62150;BME280;48134;53.586;10.610;2024-02-28T06:15:24;101388.84;;;0.52;100.00
62150;BME280;48134;53.586;10.610;2024-02-28T06:18:00;101393.38;;;0.52;100.00
62150;BME280;48134;53.586;10.610;2024-02-28T06:20:28;101390.31;;;0.55;100.00
62150;BME280;48134;53.586;10.610;2024-02-28T06:23:01;101394.66;;;0.56;100.00
62150;BME280;48134;53.586;10.610;2024-02-28T06:25:29;101391.56;;;0.59;100.00
62150;BME280;48134;53.586;10.610;2024-02-28T06:28:07;101389.53;;;0.61;100.00
62150;BME280;48134;53.586;10.610;2024-02-28T06:30:42;101396.78;;;0.67;100.00
62150;BME280;48134;53.586;10.610;2024-02-28T06:33:10;101403.81;;;0.68;100.00
62150;BME280;48134;53.586;10.610;2024-02-28T06:35:44;101403.59;;;0.70;100.00
62150;BME280;48134;53.586;10.610;2024-02-28T06:38:12;101402.97;;;0.67;100.00
62150;BME280;48134;53.586;10.610;2024-02-28T06:40:45;101411.63;;;0.70;100.00
62150;BME280;48134;53.586;10.610;2024-02-28T06:43:19;101406.09;;;0.71;100.00
62150;BME280;48134;53.586;10.610;2024-02-28T06:45:47;101412.31;;;0.78;100.00
62150;BME280;48134;53.586;10.610;2024-02-28T06:48:21;101421.00;;;0.80;100.00
62150;BME280;48134;53.586;10.610;2024-02-28T06:50:54;101425.84;;;0.70;100.00
62150;BME280;48134;53.586;10.610;2024-02-28T06:53:22;101431.72;;;0.80;100.00
62150;BME280;48134;53.586;10.610;2024-02-28T06:55:50;101434.81;;;0.84;100.00
62150;BME280;48134;53.586;10.610;2024-02-28T06:58:20;101433.78;;;0.85;100.00
62150;BME280;48134;53.586;10.610;2024-02-28T07:00:50;101429.50;;;0.91;100.00
62150;BME280;48134;53.586;10.610;2024-02-28T07:03:23;101432.88;;;1.06;100.00
62150;BME280;48134;53.586;10.610;2024-02-28T07:05:57;101439.44;;;1.04;100.00
62150;BME280;48134;53.586;10.610;2024-02-28T07:08:25;101441.97;;;1.12;100.00
62150;BME280;48134;53.586;10.610;2024-02-28T07:10:53;101437.06;;;1.15;100.00
62150;BME280;48134;53.586;10.610;2024-02-28T07:13:28;101433.59;;;1.22;100.00
62150;BME280;48134;53.586;10.610;2024-02-28T07:16:01;101450.53;;;1.29;100.00
62150;BME280;48134;53.586;10.610;2024-02-28T07:18:34;101440.84;;;1.34;100.00
62150;BME280;48134;53.586;10.610;2024-02-28T07:21:07;101441.94;;;1.47;100.00
62150;BME280;48134;53.586;10.610;2024-02-28T07:23:38;101448.28;;;1.39;100.00
62150;BME280;48134;53.586;10.610;2024-02-28T07:26:07;101444.59;;;1.40;100.00
62150;BME280;48134;53.586;10.610;2024-02-28T07:28:41;101449.34;;;1.45;100.00
62150;BME280;48134;53.586;10.610;2024-02-28T07:31:14;101446.47;;;1.46;100.00
62150;BME280;48134;53.586;10.610;2024-02-28T07:33:48;101454.13;;;1.49;100.00
62150;BME280;48134;53.586;10.610;2024-02-28T07:36:21;101453.25;;;1.42;100.00
62150;BME280;48134;53.586;10.610;2024-02-28T07:38:54;101457.34;;;1.38;100.00
62150;BME280;48134;53.586;10.610;2024-02-28T07:41:23;101462.72;;;1.38;100.00
62150;BME280;48134;53.586;10.610;2024-02-28T07:43:53;101466.66;;;1.35;100.00
62150;BME280;48134;53.586;10.610;2024-02-28T07:46:26;101457.81;;;1.42;100.00
62150;BME280;48134;53.586;10.610;2024-02-28T07:49:00;101451.00;;;1.46;100.00
62150;BME280;48134;53.586;10.610;2024-02-28T07:51:33;101455.59;;;1.59;100.00
62150;BME280;48134;53.586;10.610;2024-02-28T07:54:08;101447.81;;;1.70;100.00
62150;BME280;48134;53.586;10.610;2024-02-28T07:56:41;101445.69;;;1.52;100.00
62150;BME280;48134;53.586;10.610;2024-02-28T07:59:16;101446.97;;;1.70;100.00
62150;BME280;48134;53.586;10.610;2024-02-28T08:01:50;101442.03;;;1.80;100.00
62150;BME280;48134;53.586;10.610;2024-02-28T08:04:24;101438.53;;;1.80;100.00
62150;BME280;48134;53.586;10.610;2024-02-28T08:06:57;101437.94;;;1.84;100.00
62150;BME280;48134;53.586;10.610;2024-02-28T08:09:26;101446.22;;;1.90;100.00
62150;BME280;48134;53.586;10.610;2024-02-28T08:11:54;101445.59;;;1.94;100.00
62150;BME280;48134;53.586;10.610;2024-02-28T08:14:23;101445.84;;;2.13;100.00
62150;BME280;48134;53.586;10.610;2024-02-28T08:16:57;101447.69;;;2.12;100.00
62150;BME280;48134;53.586;10.610;2024-02-28T08:19:26;101455.94;;;2.11;100.00
62150;BME280;48134;53.586;10.610;2024-02-28T08:21:54;101457.97;;;1.95;100.00
62150;BME280;48134;53.586;10.610;2024-02-28T08:24:27;101455.28;;;1.89;100.00
62150;BME280;48134;53.586;10.610;2024-02-28T08:27:01;101460.41;;;1.83;100.00
62150;BME280;48134;53.586;10.610;2024-02-28T08:29:31;101458.97;;;1.87;100.00
62150;BME280;48134;53.586;10.610;2024-02-28T08:32:02;101467.03;;;1.87;100.00
62150;BME280;48134;53.586;10.610;2024-02-28T08:34:38;101463.53;;;1.87;100.00
62150;BME280;48134;53.586;10.610;2024-02-28T08:37:17;101467.47;;;1.91;100.00
62150;BME280;48134;53.586;10.610;2024-02-28T08:39:46;101466.84;;;1.89;100.00
62150;BME280;48134;53.586;10.610;2024-02-28T08:42:14;101465.59;;;1.85;100.00
62150;BME280;48134;53.586;10.610;2024-02-28T08:44:49;101461.91;;;1.99;100.00
62150;BME280;48134;53.586;10.610;2024-02-28T08:47:23;101472.44;;;1.94;100.00
62150;BME280;48134;53.586;10.610;2024-02-28T08:49:56;101469.13;;;1.99;100.00
62150;BME280;48134;53.586;10.610;2024-02-28T08:52:24;101465.47;;;2.20;100.00
62150;BME280;48134;53.586;10.610;2024-02-28T08:54:53;101459.50;;;2.45;100.00
62150;BME280;48134;53.586;10.610;2024-02-28T08:57:21;101463.41;;;2.69;100.00
62150;BME280;48134;53.586;10.610;2024-02-28T08:59:57;101466.69;;;2.84;100.00
62150;BME280;48134;53.586;10.610;2024-02-28T09:02:25;101473.34;;;2.82;100.00
62150;BME280;48134;53.586;10.610;2024-02-28T09:04:53;101474.38;;;2.87;100.00
62150;BME280;48134;53.586;10.610;2024-02-28T09:07:28;101472.50;;;2.88;100.00
62150;BME280;48134;53.586;10.610;2024-02-28T09:10:05;101470.38;;;3.10;100.00
62150;BME280;48134;53.586;10.610;2024-02-28T09:12:34;101470.59;;;3.15;100.00
62150;BME280;48134;53.586;10.610;2024-02-28T09:15:09;101466.66;;;3.18;100.00
62150;BME280;48134;53.586;10.610;2024-02-28T09:17:43;101468.69;;;3.22;100.00
62150;BME280;48134;53.586;10.610;2024-02-28T09:20:16;101459.38;;;3.32;100.00
62150;BME280;48134;53.586;10.610;2024-02-28T09:22:49;101462.09;;;3.18;100.00
62150;BME280;48134;53.586;10.610;2024-02-28T09:25:23;101464.53;;;3.27;100.00
62150;BME280;48134;53.586;10.610;2024-02-28T09:27:51;101471.34;;;3.36;100.00
62150;BME280;48134;53.586;10.610;2024-02-28T09:30:26;101471.09;;;3.51;100.00
62150;BME280;48134;53.586;10.610;2024-02-28T09:32:59;101482.81;;;3.63;100.00
62150;BME280;48134;53.586;10.610;2024-02-28T09:35:32;101469.72;;;3.80;100.00
62150;BME280;48134;53.586;10.610;2024-02-28T09:38:09;101474.31;;;3.73;100.00
62150;BME280;48134;53.586;10.610;2024-02-28T09:40:45;101470.34;;;3.75;100.00
62150;BME280;48134;53.586;10.610;2024-02-28T09:43:26;101471.88;;;3.58;100.00
62150;BME280;48134;53.586;10.610;2024-02-28T09:46:03;101481.56;;;3.66;100.00
62150;BME280;48134;53.586;10.610;2024-02-28T09:48:38;101479.03;;;3.78;100.00
62150;BME280;48134;53.586;10.610;2024-02-28T09:51:13;101486.56;;;3.69;100.00
62150;BME280;48134;53.586;10.610;2024-02-28T09:53:47;101484.47;;;3.64;100.00
62150;BME280;48134;53.586;10.610;2024-02-28T09:56:21;101486.66;;;3.87;100.00
62150;BME280;48134;53.586;10.610;2024-02-28T09:58:57;101487.31;;;4.21;100.00
62150;BME280;48134;53.586;10.610;2024-02-28T10:01:27;101485.91;;;4.12;100.00
62150;BME280;48134;53.586;10.610;2024-02-28T10:03:56;101482.94;;;4.20;100.00
62150;BME280;48134;53.586;10.610;2024-02-28T10:06:30;101479.25;;;4.15;100.00
62150;BME280;48134;53.586;10.610;2024-02-28T10:08:59;101482.31;;;4.18;100.00
62150;BME280;48134;53.586;10.610;2024-02-28T10:11:32;101480.06;;;4.47;100.00
62150;BME280;48134;53.586;10.610;2024-02-28T10:14:02;101483.69;;;4.59;100.00
62150;BME280;48134;53.586;10.610;2024-02-28T10:16:36;101489.47;;;4.63;100.00
62150;BME280;48134;53.586;10.610;2024-02-28T10:19:10;101488.59;;;4.44;100.00
62150;BME280;48134;53.586;10.610;2024-02-28T10:21:46;101493.84;;;4.64;100.00
62150;BME280;48134;53.586;10.610;2024-02-28T10:24:20;101495.41;;;4.72;100.00
62150;BME280;48134;53.586;10.610;2024-02-28T10:27:00;101497.56;;;4.63;100.00
62150;BME280;48134;53.586;10.610;2024-02-28T10:29:34;101501.69;;;4.66;100.00
62150;BME280;48134;53.586;10.610;2024-02-28T10:32:08;101501.47;;;4.67;100.00
62150;BME280;48134;53.586;10.610;2024-02-28T10:34:43;101497.66;;;4.75;100.00
62150;BME280;48134;53.586;10.610;2024-02-28T10:37:12;101494.91;;;4.56;100.00
62150;BME280;48134;53.586;10.610;2024-02-28T10:39:46;101500.41;;;4.43;100.00
62150;BME280;48134;53.586;10.610;2024-02-28T10:42:15;101503.53;;;4.40;100.00
62150;BME280;48134;53.586;10.610;2024-02-28T10:44:49;101502.22;;;4.49;100.00
62150;BME280;48134;53.586;10.610;2024-02-28T10:47:25;101504.03;;;4.55;100.00
62150;BME280;48134;53.586;10.610;2024-02-28T10:50:00;101517.53;;;4.81;100.00
62150;BME280;48134;53.586;10.610;2024-02-28T10:52:34;101516.31;;;5.02;100.00
62150;BME280;48134;53.586;10.610;2024-02-28T10:55:08;101510.34;;;5.18;100.00
62150;BME280;48134;53.586;10.610;2024-02-28T10:57:42;101508.16;;;5.08;100.00
62150;BME280;48134;53.586;10.610;2024-02-28T11:00:12;101498.69;;;4.99;100.00
62150;BME280;48134;53.586;10.610;2024-02-28T11:02:44;101507.03;;;5.16;100.00
62150;BME280;48134;53.586;10.610;2024-02-28T11:05:13;101500.06;;;5.08;100.00
62150;BME280;48134;53.586;10.610;2024-02-28T11:07:41;101493.75;;;4.96;100.00
62150;BME280;48134;53.586;10.610;2024-02-28T11:10:10;101496.53;;;5.08;100.00
62150;BME280;48134;53.586;10.610;2024-02-28T11:12:54;101506.75;;;5.24;100.00
62150;BME280;48134;53.586;10.610;2024-02-28T11:15:27;101500.75;;;5.41;100.00
62150;BME280;48134;53.586;10.610;2024-02-28T11:18:08;101510.44;;;5.49;100.00
62150;BME280;48134;53.586;10.610;2024-02-28T11:20:42;101509.94;;;5.70;100.00
62150;BME280;48134;53.586;10.610;2024-02-28T11:23:11;101499.44;;;5.81;100.00
62150;BME280;48134;53.586;10.610;2024-02-28T11:25:41;101500.03;;;5.83;100.00
62150;BME280;48134;53.586;10.610;2024-02-28T11:28:15;101500.97;;;5.76;100.00
62150;BME280;48134;53.586;10.610;2024-02-28T11:30:48;101509.25;;;5.93;100.00
62150;BME280;48134;53.586;10.610;2024-02-28T11:33:18;101508.78;;;5.96;100.00
62150;BME280;48134;53.586;10.610;2024-02-28T11:35:55;101513.56;;;6.01;100.00
62150;BME280;48134;53.586;10.610;2024-02-28T11:38:28;101512.91;;;6.18;100.00
62150;BME280;48134;53.586;10.610;2024-02-28T11:40:56;101514.09;;;6.22;100.00
62150;BME280;48134;53.586;10.610;2024-02-28T11:43:30;101508.84;;;6.39;100.00
62150;BME280;48134;53.586;10.610;2024-02-28T11:46:08;101506.25;;;6.32;100.00
62150;BME280;48134;53.586;10.610;2024-02-28T11:48:39;101506.00;;;6.22;100.00
62150;BME280;48134;53.586;10.610;2024-02-28T11:51:12;101500.88;;;6.56;100.00
62150;BME280;48134;53.586;10.610;2024-02-28T11:53:45;101492.31;;;6.71;100.00
62150;BME280;48134;53.586;10.610;2024-02-28T11:56:19;101501.28;;;6.71;100.00
62150;BME280;48134;53.586;10.610;2024-02-28T11:58:53;101493.03;;;6.78;100.00
62150;BME280;48134;53.586;10.610;2024-02-28T12:01:33;101486.22;;;6.99;100.00
62150;BME280;48134;53.586;10.610;2024-02-28T12:04:08;101478.47;;;6.91;100.00
62150;BME280;48134;53.586;10.610;2024-02-28T12:06:42;101486.22;;;6.99;100.00
62150;BME280;48134;53.586;10.610;2024-02-28T12:09:16;101486.69;;;6.96;100.00
62150;BME280;48134;53.586;10.610;2024-02-28T12:11:50;101485.88;;;7.07;100.00
62150;BME280;48134;53.586;10.610;2024-02-28T12:14:23;101478.44;;;7.14;100.00
62150;BME280;48134;53.586;10.610;2024-02-28T12:16:57;101468.69;;;7.13;100.00
62150;BME280;48134;53.586;10.610;2024-02-28T12:19:31;101471.38;;;7.13;100.00
62150;BME280;48134;53.586;10.610;2024-02-28T12:22:00;101467.88;;;6.89;100.00
62150;BME280;48134;53.586;10.610;2024-02-28T12:24:33;101460.72;;;6.71;100.00
62150;BME280;48134;53.586;10.610;2024-02-28T12:27:06;101470.44;;;6.49;100.00
62150;BME280;48134;53.586;10.610;2024-02-28T12:29:39;101472.53;;;6.35;100.00
62150;BME280;48134;53.586;10.610;2024-02-28T12:32:13;101463.50;;;6.41;100.00
62150;BME280;48134;53.586;10.610;2024-02-28T12:34:50;101467.53;;;6.20;100.00
62150;BME280;48134;53.586;10.610;2024-02-28T12:37:18;101460.00;;;6.10;100.00
62150;BME280;48134;53.586;10.610;2024-02-28T12:39:46;101461.31;;;6.19;100.00
62150;BME280;48134;53.586;10.610;2024-02-28T12:42:20;101464.28;;;6.29;100.00
62150;BME280;48134;53.586;10.610;2024-02-28T12:44:48;101460.00;;;6.76;100.00
62150;BME280;48134;53.586;10.610;2024-02-28T12:47:16;101457.03;;;7.01;100.00
62150;BME280;48134;53.586;10.610;2024-02-28T12:49:51;101444.56;;;7.00;100.00
62150;BME280;48134;53.586;10.610;2024-02-28T12:52:19;101450.69;;;6.95;100.00
62150;BME280;48134;53.586;10.610;2024-02-28T12:54:52;101446.81;;;7.03;100.00
62150;BME280;48134;53.586;10.610;2024-02-28T12:57:25;101438.09;;;7.13;100.00
62150;BME280;48134;53.586;10.610;2024-02-28T12:59:59;101442.56;;;7.07;100.00
62150;BME280;48134;53.586;10.610;2024-02-28T13:02:32;101442.09;;;6.98;100.00
62150;BME280;48134;53.586;10.610;2024-02-28T13:05:07;101438.94;;;7.02;100.00
62150;BME280;48134;53.586;10.610;2024-02-28T13:07:36;101441.06;;;6.88;100.00